sensor_id;sensor_type;location;lat;lon;timestamp;pressure;altitude;pressure_sealevel;temperature;humidity
74218;BME280;62579;47.288;18.646;2022-08-01T00:01:33;99712.47;;;16.93;67.11
74218;BME280;62579;47.288;18.646;2022-08-01T00:03:58;99706.81;;;16.98;66.79
74218;BME280;62579;47.288;18.646;2022-08-01T00:06:23;99707.94;;;17.03;66.53
74218;BME280;62579;47.288;18.646;2022-08-01T00:08:49;99710.91;;;17.05;66.53
74218;BME280;62579;47.288;18.646;2022-08-01T00:11:14;99715.81;;;16.99;67.01
74218;BME280;62579;47.288;18.646;2022-08-01T00:13:40;99710.31;;;16.99;66.92
74218;BME280;62579;47.288;18.646;2022-08-01T00:16:05;99719.84;;;16.98;67.26
74218;BME280;62579;47.288;18.646;2022-08-01T00:18:30;99712.28;;;16.91;66.72
74218;BME280;62579;47.288;18.646;2022-08-01T00:20:56;99711.34;;;16.80;67.14
74218;BME280;62579;47.288;18.646;2022-08-01T00:23:21;99697.84;;;16.98;67.32
74218;BME280;62579;47.288;18.646;2022-08-01T00:25:47;99707.31;;;16.89;67.22
74218;BME280;62579;47.288;18.646;2022-08-01T00:28:12;99701.97;;;16.83;67.26
74218;BME280;62579;47.288;18.646;2022-08-01T00:30:38;99697.59;;;16.80;67.48
74218;BME280;62579;47.288;18.646;2022-08-01T00:33:04;99693.56;;;16.81;67.65
74218;BME280;62579;47.288;18.646;2022-08-01T00:35:29;99694.47;;;16.84;67.47
74218;BME280;62579;47.288;18.646;2022-08-01T00:37:54;99704.37;;;16.87;67.81
74218;BME280;62579;47.288;18.646;2022-08-01T00:40:20;99698.72;;;16.85;67.51
74218;BME280;62579;47.288;18.646;2022-08-01T00:42:46;99701.50;;;16.93;67.47
74218;BME280;62579;47.288;18.646;2022-08-01T00:45:11;99694.47;;;16.84;67.73
74218;BME280;62579;47.288;18.646;2022-08-01T00:47:37;99687.16;;;16.87;67.64
74218;BME280;62579;47.288;18.646;2022-08-01T00:50:06;99692.72;;;16.94;67.68
74218;BME280;62579;47.288;18.646;2022-08-01T00:52:32;99699.28;;;16.91;67.95
74218;BME280;62579;47.288;18.646;2022-08-01T00:54:58;99697.19;;;16.76;67.91
74218;BME280;62579;47.288;18.646;2022-08-01T00:57:24;99703.63;;;16.79;68.20
74218;BME280;62579;47.288;18.646;2022-08-01T00:59:49;99701.78;;;16.81;68.39
74218;BME280;62579;47.288;18.646;2022-08-01T01:02:14;99692.62;;;16.79;68.16
74218;BME280;62579;47.288;18.646;2022-08-01T01:04:41;99708.38;;;16.78;67.91
74218;BME280;62579;47.288;18.646;2022-08-01T01:07:17;99700.50;;;16.75;68.10
74218;BME280;62579;47.288;18.646;2022-08-01T01:09:58;99699.91;;;16.69;68.09
74218;BME280;62579;47.288;18.646;2022-08-01T01:12:47;99702.16;;;16.78;68.18
74218;BME280;62579;47.288;18.646;2022-08-01T01:15:28;99701.91;;;16.68;68.37
74218;BME280;62579;47.288;18.646;2022-08-01T01:20:32;99693.97;;;16.57;68.87
74218;BME280;62579;47.288;18.646;2022-08-01T01:23:07;99695.50;;;16.66;68.35
74218;BME280;62579;47.288;18.646;2022-08-01T01:28:35;99695.47;;;16.58;68.23
74218;BME280;62579;47.288;18.646;2022-08-01T01:31:03;99694.56;;;16.63;68.45
74218;BME280;62579;47.288;18.646;2022-08-01T01:33:34;99690.88;;;16.61;68.67
74218;BME280;62579;47.288;18.646;2022-08-01T01:36:05;99684.12;;;16.62;68.79
74218;BME280;62579;47.288;18.646;2022-08-01T01:38:37;99695.84;;;16.62;68.79
74218;BME280;62579;47.288;18.646;2022-08-01T01:41:08;99689.97;;;16.58;68.69
74218;BME280;62579;47.288;18.646;2022-08-01T01:43:36;99696.56;;;16.63;68.71
74218;BME280;62579;47.288;18.646;2022-08-01T01:46:03;99683.91;;;16.60;69.13
74218;BME280;62579;47.288;18.646;2022-08-01T01:48:30;99683.38;;;16.61;68.75
74218;BME280;62579;47.288;18.646;2022-08-01T01:50:58;99677.16;;;16.61;68.63
74218;BME280;62579;47.288;18.646;2022-08-01T01:53:24;99679.75;;;16.66;68.68
74218;BME280;62579;47.288;18.646;2022-08-01T01:55:54;99681.97;;;16.75;68.41
74218;BME280;62579;47.288;18.646;2022-08-01T01:58:21;99683.44;;;16.69;68.52
74218;BME280;62579;47.288;18.646;2022-08-01T02:00:48;99684.69;;;16.68;68.58
74218;BME280;62579;47.288;18.646;2022-08-01T02:03:14;99685.44;;;16.68;68.69
74218;BME280;62579;47.288;18.646;2022-08-01T02:05:41;99681.94;;;16.68;68.42
74218;BME280;62579;47.288;18.646;2022-08-01T02:08:09;99679.41;;;16.70;68.61
74218;BME280;62579;47.288;18.646;2022-08-01T02:10:36;99675.00;;;16.67;69.04
74218;BME280;62579;47.288;18.646;2022-08-01T02:13:05;99669.69;;;16.69;68.86
74218;BME280;62579;47.288;18.646;2022-08-01T02:15:33;99664.69;;;16.60;69.12
74218;BME280;62579;47.288;18.646;2022-08-01T02:18:01;99676.81;;;16.64;69.24
74218;BME280;62579;47.288;18.646;2022-08-01T02:20:29;99671.47;;;16.59;69.33
74218;BME280;62579;47.288;18.646;2022-08-01T02:23:00;99676.56;;;16.55;69.40
74218;BME280;62579;47.288;18.646;2022-08-01T02:25:53;99669.16;;;16.42;69.66
74218;BME280;62579;47.288;18.646;2022-08-01T02:28:35;99673.34;;;16.43;69.95
74218;BME280;62579;47.288;18.646;2022-08-01T02:31:04;99667.66;;;16.41;69.76
74218;BME280;62579;47.288;18.646;2022-08-01T02:33:38;99670.97;;;16.40;70.18
74218;BME280;62579;47.288;18.646;2022-08-01T02:36:04;99667.25;;;16.58;69.60
74218;BME280;62579;47.288;18.646;2022-08-01T02:38:33;99671.50;;;16.66;69.23
74218;BME280;62579;47.288;18.646;2022-08-01T02:41:08;99678.69;;;16.49;69.51
74218;BME280;62579;47.288;18.646;2022-08-01T02:43:36;99669.34;;;16.44;69.85
74218;BME280;62579;47.288;18.646;2022-08-01T02:46:04;99678.75;;;16.28;70.54
74218;BME280;62579;47.288;18.646;2022-08-01T02:48:33;99673.25;;;16.28;70.46
74218;BME280;62579;47.288;18.646;2022-08-01T02:51:01;99666.00;;;16.10;70.63
74218;BME280;62579;47.288;18.646;2022-08-01T02:53:31;99666.94;;;16.12;70.86
74218;BME280;62579;47.288;18.646;2022-08-01T02:56:00;99662.22;;;16.20;70.26
74218;BME280;62579;47.288;18.646;2022-08-01T02:58:26;99666.53;;;16.08;71.05
74218;BME280;62579;47.288;18.646;2022-08-01T03:00:52;99661.78;;;16.09;70.77
74218;BME280;62579;47.288;18.646;2022-08-01T03:03:18;99664.66;;;16.03;71.21
74218;BME280;62579;47.288;18.646;2022-08-01T03:05:45;99652.28;;;16.10;nan
74218;BME280;62579;47.288;18.646;2022-08-01T03:08:11;99657.16;;;16.04;71.48
74218;BME280;62579;47.288;18.646;2022-08-01T03:10:38;99651.53;;;16.09;71.42
74218;BME280;62579;47.288;18.646;2022-08-01T03:13:06;99655.69;;;16.03;71.58
74218;BME280;62579;47.288;18.646;2022-08-01T03:15:35;99657.78;;;16.10;71.24
74218;BME280;62579;47.288;18.646;2022-08-01T03:18:02;99652.53;;;16.19;70.86
74218;BME280;62579;47.288;18.646;2022-08-01T03:20:29;99653.84;;;16.26;70.45
74218;BME280;62579;47.288;18.646;2022-08-01T03:22:56;99658.78;;;16.28;70.71
74218;BME280;62579;47.288;18.646;2022-08-01T03:25:23;99656.03;;;16.28;70.44
74218;BME280;62579;47.288;18.646;2022-08-01T03:27:56;99648.06;;;16.37;70.23
74218;BME280;62579;47.288;18.646;2022-08-01T03:30:25;99654.91;;;16.51;69.89
74218;BME280;62579;47.288;18.646;2022-08-01T03:32:51;99654.72;;;16.49;69.68
74218;BME280;62579;47.288;18.646;2022-08-01T03:35:17;99661.25;;;16.39;70.02
74218;BME280;62579;47.288;18.646;2022-08-01T03:37:45;99663.31;;;16.17;70.85
74218;BME280;62579;47.288;18.646;2022-08-01T03:40:23;99668.47;;;16.21;71.29
74218;BME280;62579;47.288;18.646;2022-08-01T03:42:53;99661.62;;;16.14;71.20
74218;BME280;62579;47.288;18.646;2022-08-01T03:45:24;99667.41;;;16.24;70.89
74218;BME280;62579;47.288;18.646;2022-08-01T03:47:55;99673.44;;;16.30;70.91
74218;BME280;62579;47.288;18.646;2022-08-01T03:50:22;99672.78;;;16.37;70.68
74218;BME280;62579;47.288;18.646;2022-08-01T03:52:50;99672.50;;;16.48;70.26
74218;BME280;62579;47.288;18.646;2022-08-01T03:55:18;99666.69;;;16.59;70.29
74218;BME280;62579;47.288;18.646;2022-08-01T03:57:46;99675.28;;;16.56;70.16
74218;BME280;62579;47.288;18.646;2022-08-01T04:00:12;99668.34;;;16.62;69.99
74218;BME280;62579;47.288;18.646;2022-08-01T04:02:38;99670.38;;;16.62;69.97
74218;BME280;62579;47.288;18.646;2022-08-01T04:05:04;99675.00;;;16.67;69.80
74218;BME280;62579;47.288;18.646;2022-08-01T04:07:32;99684.91;;;16.70;69.83
74218;BME280;62579;47.288;18.646;2022-08-01T04:10:00;99677.78;;;16.74;69.74
74218;BME280;62579;47.288;18.646;2022-08-01T04:12:26;99676.84;;;16.72;69.88
74218;BME280;62579;47.288;18.646;2022-08-01T04:14:51;99673.19;;;16.77;69.87
74218;BME280;62579;47.288;18.646;2022-08-01T04:17:17;99679.81;;;16.81;69.91
74218;BME280;62579;47.288;18.646;2022-08-01T04:19:43;99679.84;;;16.89;69.71
74218;BME280;62579;47.288;18.646;2022-08-01T04:22:10;99682.44;;;16.95;69.74
74218;BME280;62579;47.288;18.646;2022-08-01T04:24:36;99685.56;;;16.99;69.61
74218;BME280;62579;47.288;18.646;2022-08-01T04:27:05;99682.66;;;17.04;69.60
74218;BME280;62579;47.288;18.646;2022-08-01T04:29:32;99679.91;;;17.04;69.88
74218;BME280;62579;47.288;18.646;2022-08-01T04:32:00;99681.59;;;17.15;69.52
74218;BME280;62579;47.288;18.646;2022-08-01T04:34:28;99676.28;;;17.24;69.41
74218;BME280;62579;47.288;18.646;2022-08-01T04:36:57;99683.09;;;17.31;69.32
74218;BME280;62579;47.288;18.646;2022-08-01T04:39:28;99687.84;;;17.23;69.77
74218;BME280;62579;47.288;18.646;2022-08-01T04:41:57;99692.12;;;17.39;69.36
74218;BME280;62579;47.288;18.646;2022-08-01T04:44:24;99691.78;;;17.50;69.47
74218;BME280;62579;47.288;18.646;2022-08-01T04:46:50;99685.03;;;17.66;69.44
74218;BME280;62579;47.288;18.646;2022-08-01T04:49:19;99685.22;;;17.83;68.52
74218;BME280;62579;47.288;18.646;2022-08-01T04:51:52;99688.53;;;17.89;68.35
74218;BME280;62579;47.288;18.646;2022-08-01T04:54:24;99695.50;;;17.98;68.16
74218;BME280;62579;47.288;18.646;2022-08-01T04:56:49;99687.59;;;18.02;68.10
74218;BME280;62579;47.288;18.646;2022-08-01T04:59:15;99691.47;;;18.14;67.72
74218;BME280;62579;47.288;18.646;2022-08-01T05:01:59;99684.84;;;18.25;67.69
74218;BME280;62579;47.288;18.646;2022-08-01T05:04:24;99690.50;;;18.34;67.40
74218;BME280;62579;47.288;18.646;2022-08-01T05:06:49;99687.78;;;18.49;67.20
74218;BME280;62579;47.288;18.646;2022-08-01T05:09:15;99684.44;;;18.58;67.02
74218;BME280;62579;47.288;18.646;2022-08-01T05:11:41;99685.12;;;18.74;66.69
74218;BME280;62579;47.288;18.646;2022-08-01T05:14:06;99684.91;;;18.87;66.20
74218;BME280;62579;47.288;18.646;2022-08-01T05:16:31;99688.16;;;18.93;66.09
74218;BME280;62579;47.288;18.646;2022-08-01T05:18:57;99689.56;;;19.17;65.60
74218;BME280;62579;47.288;18.646;2022-08-01T05:21:22;99687.28;;;19.31;65.10
74218;BME280;62579;47.288;18.646;2022-08-01T05:23:47;99686.47;;;19.45;65.94
74218;BME280;62579;47.288;18.646;2022-08-01T05:26:14;99682.09;;;19.67;65.72
74218;BME280;62579;47.288;18.646;2022-08-01T05:28:39;99681.97;;;19.82;64.78
74218;BME280;62579;47.288;18.646;2022-08-01T05:31:05;99685.41;;;19.90;63.74
74218;BME280;62579;47.288;18.646;2022-08-01T05:33:31;99683.97;;;19.89;63.54
74218;BME280;62579;47.288;18.646;2022-08-01T05:35:56;99677.09;;;19.98;63.66
74218;BME280;62579;47.288;18.646;2022-08-01T05:38:21;99689.50;;;20.06;63.16
74218;BME280;62579;47.288;18.646;2022-08-01T05:40:47;99681.63;;;20.27;62.83
74218;BME280;62579;47.288;18.646;2022-08-01T05:43:12;99691.16;;;20.51;62.64
74218;BME280;62579;47.288;18.646;2022-08-01T05:45:38;99689.84;;;20.52;62.52
74218;BME280;62579;47.288;18.646;2022-08-01T05:48:03;99688.31;;;20.59;62.67
74218;BME280;62579;47.288;18.646;2022-08-01T05:50:29;99682.69;;;20.83;60.20
74218;BME280;62579;47.288;18.646;2022-08-01T05:52:54;99688.37;;;20.85;60.18
74218;BME280;62579;47.288;18.646;2022-08-01T05:55:20;99679.88;;;21.01;59.31
74218;BME280;62579;47.288;18.646;2022-08-01T05:57:45;99685.81;;;21.14;58.65
74218;BME280;62579;47.288;18.646;2022-08-01T06:00:11;99692.62;;;21.30;58.11
74218;BME280;62579;47.288;18.646;2022-08-01T06:02:41;99696.59;;;21.37;57.51
74218;BME280;62579;47.288;18.646;2022-08-01T06:05:08;99694.31;;;21.43;57.72
74218;BME280;62579;47.288;18.646;2022-08-01T06:07:33;99693.88;;;21.46;57.55
74218;BME280;62579;47.288;18.646;2022-08-01T06:09:59;99691.56;;;21.52;57.04
74218;BME280;62579;47.288;18.646;2022-08-01T06:12:24;99698.47;;;21.61;57.18
74218;BME280;62579;47.288;18.646;2022-08-01T06:14:49;99698.34;;;21.69;56.25
74218;BME280;62579;47.288;18.646;2022-08-01T06:17:15;99695.91;;;21.73;56.55
74218;BME280;62579;47.288;18.646;2022-08-01T06:19:40;99693.06;;;21.90;56.66
74218;BME280;62579;47.288;18.646;2022-08-01T06:22:05;99695.00;;;21.97;55.92
74218;BME280;62579;47.288;18.646;2022-08-01T06:24:31;99697.03;;;21.96;55.74
74218;BME280;62579;47.288;18.646;2022-08-01T06:26:56;99698.38;;;22.05;55.64
74218;BME280;62579;47.288;18.646;2022-08-01T06:29:21;99696.06;;;21.84;56.73
74218;BME280;62579;47.288;18.646;2022-08-01T06:31:46;99694.63;;;22.29;55.71
74218;BME280;62579;47.288;18.646;2022-08-01T06:34:12;99694.63;;;22.29;55.95
74218;BME280;62579;47.288;18.646;2022-08-01T06:36:37;99696.22;;;22.32;54.87
74218;BME280;62579;47.288;18.646;2022-08-01T06:39:03;99695.63;;;22.24;56.37
74218;BME280;62579;47.288;18.646;2022-08-01T06:41:28;99693.16;;;22.57;55.46
74218;BME280;62579;47.288;18.646;2022-08-01T06:43:53;99697.16;;;22.73;55.44
74218;BME280;62579;47.288;18.646;2022-08-01T06:46:19;99696.13;;;22.88;55.30
74218;BME280;62579;47.288;18.646;2022-08-01T06:48:44;99696.09;;;22.97;54.08
74218;BME280;62579;47.288;18.646;2022-08-01T06:51:09;99689.53;;;23.12;54.33
74218;BME280;62579;47.288;18.646;2022-08-01T06:53:38;99691.13;;;23.15;53.74
74218;BME280;62579;47.288;18.646;2022-08-01T06:56:04;99690.09;;;23.10;53.17
74218;BME280;62579;47.288;18.646;2022-08-01T06:58:31;99696.03;;;23.36;52.85
74218;BME280;62579;47.288;18.646;2022-08-01T07:00:57;99692.25;;;23.31;52.12
74218;BME280;62579;47.288;18.646;2022-08-01T07:03:22;99695.72;;;23.51;52.27
74218;BME280;62579;47.288;18.646;2022-08-01T07:05:49;99686.56;;;23.79;51.14
74218;BME280;62579;47.288;18.646;2022-08-01T07:08:16;99688.47;;;23.76;50.94
74218;BME280;62579;47.288;18.646;2022-08-01T07:10:41;99685.53;;;24.05;50.80
74218;BME280;62579;47.288;18.646;2022-08-01T07:13:08;99679.16;;;24.24;49.95
74218;BME280;62579;47.288;18.646;2022-08-01T07:15:36;99678.28;;;24.42;49.32
74218;BME280;62579;47.288;18.646;2022-08-01T07:18:01;99681.81;;;24.43;48.72
74218;BME280;62579;47.288;18.646;2022-08-01T07:20:29;99679.75;;;24.43;47.75
74218;BME280;62579;47.288;18.646;2022-08-01T07:22:54;99683.19;;;24.54;47.61
74218;BME280;62579;47.288;18.646;2022-08-01T07:25:19;99673.47;;;24.43;47.99
74218;BME280;62579;47.288;18.646;2022-08-01T07:27:45;99674.50;;;24.59;47.27
74218;BME280;62579;47.288;18.646;2022-08-01T07:30:11;99679.72;;;24.65;46.87
74218;BME280;62579;47.288;18.646;2022-08-01T07:32:36;99681.91;;;24.66;47.06
74218;BME280;62579;47.288;18.646;2022-08-01T07:35:03;99686.47;;;24.62;47.44
74218;BME280;62579;47.288;18.646;2022-08-01T07:37:28;99686.09;;;24.77;48.46
74218;BME280;62579;47.288;18.646;2022-08-01T07:39:54;99685.34;;;24.76;48.33
74218;BME280;62579;47.288;18.646;2022-08-01T07:42:19;99684.81;;;24.89;47.37
74218;BME280;62579;47.288;18.646;2022-08-01T07:44:44;99686.25;;;24.90;47.16
74218;BME280;62579;47.288;18.646;2022-08-01T07:47:10;99686.00;;;24.86;47.90
74218;BME280;62579;47.288;18.646;2022-08-01T07:49:35;99691.81;;;24.79;47.14
74218;BME280;62579;47.288;18.646;2022-08-01T07:52:01;99694.81;;;24.83;47.17
74218;BME280;62579;47.288;18.646;2022-08-01T07:54:26;99694.41;;;24.98;46.44
74218;BME280;62579;47.288;18.646;2022-08-01T07:56:53;99686.81;;;25.10;46.23
74218;BME280;62579;47.288;18.646;2022-08-01T07:59:19;99684.12;;;25.00;46.28
74218;BME280;62579;47.288;18.646;2022-08-01T08:01:48;99677.81;;;25.00;46.60
74218;BME280;62579;47.288;18.646;2022-08-01T08:04:14;99681.94;;;24.99;46.01
74218;BME280;62579;47.288;18.646;2022-08-01T08:06:40;99684.09;;;24.89;46.56
74218;BME280;62579;47.288;18.646;2022-08-01T08:09:06;99678.56;;;25.12;45.18
74218;BME280;62579;47.288;18.646;2022-08-01T08:11:32;99681.59;;;25.04;44.42
74218;BME280;62579;47.288;18.646;2022-08-01T08:13:57;99684.62;;;25.08;45.46
74218;BME280;62579;47.288;18.646;2022-08-01T08:16:22;99678.50;;;25.22;44.69
74218;BME280;62579;47.288;18.646;2022-08-01T08:18:48;99684.28;;;25.26;44.91
74218;BME280;62579;47.288;18.646;2022-08-01T08:21:13;99679.22;;;25.34;44.28
74218;BME280;62579;47.288;18.646;2022-08-01T08:23:38;99686.63;;;25.41;44.52
74218;BME280;62579;47.288;18.646;2022-08-01T08:26:23;99694.50;;;25.44;44.26
74218;BME280;62579;47.288;18.646;2022-08-01T08:28:49;99686.13;;;25.44;43.91
74218;BME280;62579;47.288;18.646;2022-08-01T08:31:14;99686.31;;;25.58;42.90
74218;BME280;62579;47.288;18.646;2022-08-01T08:33:40;99694.44;;;25.54;43.78
74218;BME280;62579;47.288;18.646;2022-08-01T08:36:05;99691.28;;;25.59;43.47
74218;BME280;62579;47.288;18.646;2022-08-01T08:38:30;99691.25;;;25.48;44.31
74218;BME280;62579;47.288;18.646;2022-08-01T08:40:56;99691.28;;;25.59;43.30
74218;BME280;62579;47.288;18.646;2022-08-01T08:43:23;99699.16;;;25.63;44.07
74218;BME280;62579;47.288;18.646;2022-08-01T08:45:50;99699.38;;;25.55;44.96
74218;BME280;62579;47.288;18.646;2022-08-01T08:48:16;99699.16;;;25.75;43.84
74218;BME280;62579;47.288;18.646;2022-08-01T08:50:43;99696.47;;;25.77;43.79
74218;BME280;62579;47.288;18.646;2022-08-01T08:53:13;99700.72;;;25.54;44.72
74218;BME280;62579;47.288;18.646;2022-08-01T08:55:40;99707.88;;;25.69;44.46
74218;BME280;62579;47.288;18.646;2022-08-01T08:58:11;99692.84;;;25.86;43.96
74218;BME280;62579;47.288;18.646;2022-08-01T09:00:39;99692.12;;;25.97;42.83
74218;BME280;62579;47.288;18.646;2022-08-01T09:03:04;99699.66;;;25.94;42.49
74218;BME280;62579;47.288;18.646;2022-08-01T09:05:30;99697.91;;;26.01;42.62
74218;BME280;62579;47.288;18.646;2022-08-01T09:07:55;99701.06;;;25.95;43.10
74218;BME280;62579;47.288;18.646;2022-08-01T09:10:20;99694.19;;;25.85;43.95
74218;BME280;62579;47.288;18.646;2022-08-01T09:13:09;99694.91;;;26.08;40.47
74218;BME280;62579;47.288;18.646;2022-08-01T09:15:46;99696.97;;;25.96;40.98
74218;BME280;62579;47.288;18.646;2022-08-01T09:18:33;99701.56;;;26.03;40.34
74218;BME280;62579;47.288;18.646;2022-08-01T09:23:34;99694.66;;;26.04;39.44
74218;BME280;62579;47.288;18.646;2022-08-01T09:26:00;99703.63;;;26.26;39.86
74218;BME280;62579;47.288;18.646;2022-08-01T09:28:30;99695.69;;;26.46;39.63
74218;BME280;62579;47.288;18.646;2022-08-01T09:30:56;99693.88;;;26.39;39.91
74218;BME280;62579;47.288;18.646;2022-08-01T09:33:22;99688.53;;;26.43;40.39
74218;BME280;62579;47.288;18.646;2022-08-01T09:35:55;99685.12;;;26.44;40.86
74218;BME280;62579;47.288;18.646;2022-08-01T09:38:25;99687.28;;;26.57;39.74
74218;BME280;62579;47.288;18.646;2022-08-01T09:40:56;99687.50;;;26.61;38.07
74218;BME280;62579;47.288;18.646;2022-08-01T09:43:24;99688.31;;;26.75;37.86
74218;BME280;62579;47.288;18.646;2022-08-01T09:45:50;99687.31;;;26.82;37.89
74218;BME280;62579;47.288;18.646;2022-08-01T09:48:16;99693.84;;;26.87;38.44
74218;BME280;62579;47.288;18.646;2022-08-01T09:50:44;99686.75;;;26.72;38.93
74218;BME280;62579;47.288;18.646;2022-08-01T09:53:10;99692.88;;;26.94;38.35
74218;BME280;62579;47.288;18.646;2022-08-01T09:55:37;99690.84;;;27.08;38.91
74218;BME280;62579;47.288;18.646;2022-08-01T09:58:02;99691.69;;;27.11;38.83
74218;BME280;62579;47.288;18.646;2022-08-01T10:00:30;99691.75;;;26.99;39.89
74218;BME280;62579;47.288;18.646;2022-08-01T10:02:55;99695.09;;;27.09;38.63
74218;BME280;62579;47.288;18.646;2022-08-01T10:05:30;99687.63;;;27.14;38.02
74218;BME280;62579;47.288;18.646;2022-08-01T10:08:00;99681.87;;;27.23;37.47
74218;BME280;62579;47.288;18.646;2022-08-01T10:10:27;99685.84;;;27.32;38.17
74218;BME280;62579;47.288;18.646;2022-08-01T10:12:55;99679.69;;;27.47;37.98
74218;BME280;62579;47.288;18.646;2022-08-01T10:15:21;99686.75;;;27.62;37.21
74218;BME280;62579;47.288;18.646;2022-08-01T10:17:54;99677.31;;;27.69;35.61
74218;BME280;62579;47.288;18.646;2022-08-01T10:20:23;99664.91;;;27.85;34.68
74218;BME280;62579;47.288;18.646;2022-08-01T10:22:49;99686.66;;;27.73;34.98
74218;BME280;62579;47.288;18.646;2022-08-01T10:25:17;99677.03;;;27.76;34.88
74218;BME280;62579;47.288;18.646;2022-08-01T10:27:46;99670.41;;;27.70;34.30
74218;BME280;62579;47.288;18.646;2022-08-01T10:30:14;99680.22;;;27.71;34.88
74218;BME280;62579;47.288;18.646;2022-08-01T10:32:39;99676.19;;;27.87;35.47
74218;BME280;62579;47.288;18.646;2022-08-01T10:35:08;99669.78;;;27.85;35.29
74218;BME280;62579;47.288;18.646;2022-08-01T10:37:34;99668.22;;;27.82;34.04
74218;BME280;62579;47.288;18.646;2022-08-01T10:40:03;99671.94;;;28.00;34.51
74218;BME280;62579;47.288;18.646;2022-08-01T10:42:30;99671.09;;;27.97;34.22
74218;BME280;62579;47.288;18.646;2022-08-01T10:44:56;99669.47;;;27.79;34.51
74218;BME280;62579;47.288;18.646;2022-08-01T10:47:33;99668.13;;;27.80;34.32
74218;BME280;62579;47.288;18.646;2022-08-01T10:50:13;99669.06;;;28.12;34.20
74218;BME280;62579;47.288;18.646;2022-08-01T10:52:41;99662.94;;;28.15;34.92
74218;BME280;62579;47.288;18.646;2022-08-01T10:55:08;99669.78;;;28.12;33.38
74218;BME280;62579;47.288;18.646;2022-08-01T10:57:46;99680.47;;;28.02;33.50
74218;BME280;62579;47.288;18.646;2022-08-01T11:00:19;99672.06;;;28.16;33.97
74218;BME280;62579;47.288;18.646;2022-08-01T11:03:00;99666.31;;;28.41;34.28
74218;BME280;62579;47.288;18.646;2022-08-01T11:05:28;99657.34;;;28.58;34.32
74218;BME280;62579;47.288;18.646;2022-08-01T11:07:58;99657.41;;;28.74;33.46
74218;BME280;62579;47.288;18.646;2022-08-01T11:10:40;99657.53;;;28.91;33.80
74218;BME280;62579;47.288;18.646;2022-08-01T11:13:08;99656.03;;;29.04;32.77
74218;BME280;62579;47.288;18.646;2022-08-01T11:15:34;99658.56;;;29.13;32.66
74218;BME280;62579;47.288;18.646;2022-08-01T11:21:00;99649.41;;;28.97;32.58
74218;BME280;62579;47.288;18.646;2022-08-01T11:23:29;99645.88;;;28.97;32.98
74218;BME280;62579;47.288;18.646;2022-08-01T11:28:22;99635.81;;;29.52;32.35
74218;BME280;62579;47.288;18.646;2022-08-01T11:30:53;99639.06;;;29.62;31.86
74218;BME280;62579;47.288;18.646;2022-08-01T11:36:16;99637.06;;;29.81;31.01
74218;BME280;62579;47.288;18.646;2022-08-01T11:41:32;99637.75;;;29.97;31.75
74218;BME280;62579;47.288;18.646;2022-08-01T11:44:12;99626.91;;;29.73;31.87
74218;BME280;62579;47.288;18.646;2022-08-01T11:46:58;99620.06;;;29.61;31.52
74218;BME280;62579;47.288;18.646;2022-08-01T11:49:33;99633.25;;;29.74;31.69
74218;BME280;62579;47.288;18.646;2022-08-01T11:52:13;99627.09;;;29.93;31.11
74218;BME280;62579;47.288;18.646;2022-08-01T11:54:44;99622.28;;;29.96;31.74
74218;BME280;62579;47.288;18.646;2022-08-01T11:59:50;99618.75;;;29.95;31.16
74218;BME280;62579;47.288;18.646;2022-08-01T12:02:24;99622.91;;;29.78;31.30
74218;BME280;62579;47.288;18.646;2022-08-01T12:04:53;99623.22;;;29.69;31.75
74218;BME280;62579;47.288;18.646;2022-08-01T12:07:19;99618.41;;;29.87;31.19
74218;BME280;62579;47.288;18.646;2022-08-01T12:09:45;99626.25;;;29.91;30.95
74218;BME280;62579;47.288;18.646;2022-08-01T12:12:14;99620.22;;;29.81;31.16
74218;BME280;62579;47.288;18.646;2022-08-01T12:14:42;99617.69;;;29.71;31.35
74218;BME280;62579;47.288;18.646;2022-08-01T12:17:07;99631.00;;;29.70;31.34
74218;BME280;62579;47.288;18.646;2022-08-01T12:19:33;99629.66;;;29.71;31.37
74218;BME280;62579;47.288;18.646;2022-08-01T12:22:13;99625.84;;;29.65;31.85
74218;BME280;62579;47.288;18.646;2022-08-01T12:24:40;99622.06;;;29.27;32.18
74218;BME280;62579;47.288;18.646;2022-08-01T12:27:07;99623.47;;;29.75;32.08
74218;BME280;62579;47.288;18.646;2022-08-01T12:29:34;99607.81;;;29.70;32.33
74218;BME280;62579;47.288;18.646;2022-08-01T12:32:00;99616.19;;;30.01;32.12
74218;BME280;62579;47.288;18.646;2022-08-01T12:34:26;99612.75;;;30.03;31.42
74218;BME280;62579;47.288;18.646;2022-08-01T12:37:00;99614.78;;;29.85;30.59
74218;BME280;62579;47.288;18.646;2022-08-01T12:39:31;99613.25;;;29.82;30.42
74218;BME280;62579;47.288;18.646;2022-08-01T12:41:57;99608.91;;;30.12;30.59
74218;BME280;62579;47.288;18.646;2022-08-01T12:44:22;99611.66;;;30.27;30.42
74218;BME280;62579;47.288;18.646;2022-08-01T12:46:48;99600.19;;;30.39;30.70
74218;BME280;62579;47.288;18.646;2022-08-01T12:49:14;99607.66;;;30.32;30.72
74218;BME280;62579;47.288;18.646;2022-08-01T12:51:40;99595.00;;;30.49;30.77
74218;BME280;62579;47.288;18.646;2022-08-01T12:54:05;99594.41;;;30.53;29.94
74218;BME280;62579;47.288;18.646;2022-08-01T12:56:35;99583.34;;;30.39;30.90
74218;BME280;62579;47.288;18.646;2022-08-01T12:59:00;99589.59;;;30.73;30.22
74218;BME280;62579;47.288;18.646;2022-08-01T13:01:27;99587.66;;;30.95;30.47
74218;BME280;62579;47.288;18.646;2022-08-01T13:04:00;99589.31;;;31.02;30.76
74218;BME280;62579;47.288;18.646;2022-08-01T13:06:29;99588.13;;;30.72;30.19
74218;BME280;62579;47.288;18.646;2022-08-01T13:08:55;99595.72;;;30.50;31.06
74218;BME280;62579;47.288;18.646;2022-08-01T13:11:29;99584.88;;;30.42;30.76
74218;BME280;62579;47.288;18.646;2022-08-01T13:13:54;99592.72;;;30.63;30.89
74218;BME280;62579;47.288;18.646;2022-08-01T13:16:24;99593.03;;;30.71;30.57